createdAt,value
2022-12-07T00:01:44.052Z,102047.97
2022-12-07T00:04:15.393Z,102047.94
2022-12-07T00:06:45.960Z,102046.97
2022-12-07T00:09:16.960Z,102039.06
2022-12-07T00:11:44.923Z,102046.06
2022-12-07T00:14:15.974Z,102047.78
2022-12-07T00:16:45.084Z,102045.09
2022-12-07T00:19:14.938Z,102039.81
2022-12-07T00:21:42.754Z,102043.25
2022-12-07T00:24:11.426Z,102034.44
2022-12-07T00:26:41.057Z,102040.50
2022-12-07T00:29:17.926Z,102030.81
2022-12-07T00:31:45.175Z,102027.25
2022-12-07T00:34:19.025Z,102026.34
2022-12-07T00:36:46.364Z,102024.56
2022-12-07T00:39:13.734Z,102023.69
2022-12-07T00:41:40.783Z,102020.16
2022-12-07T00:44:07.837Z,102017.53
2022-12-07T00:46:34.951Z,102015.84
2022-12-07T00:49:02.023Z,102011.47
2022-12-07T00:51:29.358Z,102008.81
2022-12-07T00:53:56.530Z,102015.81
2022-12-07T00:56:27.463Z,102014.84
2022-12-07T00:59:01.342Z,102011.34
2022-12-07T01:01:34.833Z,102013.88
2022-12-07T01:04:02.892Z,102017.28
2022-12-07T01:06:30.823Z,102012.84
2022-12-07T01:08:58.260Z,102008.41
2022-12-07T01:11:29.180Z,102006.59
2022-12-07T01:13:59.070Z,102012.75
2022-12-07T01:16:30.072Z,102011.84
2022-12-07T01:18:58.825Z,102010.16
2022-12-07T01:21:36.900Z,102004.03
2022-12-07T01:24:10.220Z,102009.28
2022-12-07T01:26:37.397Z,102011.06
2022-12-07T01:29:04.594Z,102016.25
2022-12-07T01:31:32.014Z,102016.34
2022-12-07T01:34:01.733Z,102017.25
2022-12-07T01:36:35.804Z,102018.88
2022-12-07T01:39:07.466Z,102010.13
2022-12-07T01:41:44.234Z,102019.75
2022-12-07T01:44:17.311Z,102017.00
2022-12-07T01:46:52.606Z,102011.69
2022-12-07T01:49:47.900Z,102019.53
2022-12-07T01:52:21.451Z,102020.41
2022-12-07T01:54:50.984Z,102015.13
2022-12-07T01:57:18.704Z,102019.44
2022-12-07T01:59:49.597Z,102016.72
2022-12-07T02:02:24.633Z,102015.84
2022-12-07T02:04:54.848Z,102020.16
2022-12-07T02:07:23.188Z,102021.00
2022-12-07T02:09:50.334Z,102017.56
2022-12-07T02:12:17.790Z,102014.91
2022-12-07T02:14:44.958Z,102014.88
2022-12-07T02:17:26.283Z,102008.81
2022-12-07T02:20:22.927Z,102010.59
2022-12-07T02:23:30.983Z,102009.72
2022-12-07T02:27:02.637Z,102007.09
2022-12-07T02:29:48.257Z,102008.91
2022-12-07T02:32:25.191Z,102007.19
2022-12-07T02:35:05.977Z,102008.16
2022-12-07T02:38:20.906Z,102008.19
2022-12-07T02:40:58.571Z,101996.84
2022-12-07T02:43:53.462Z,102000.44
2022-12-07T02:46:33.000Z,101989.97
2022-12-07T02:49:00.586Z,101993.47
2022-12-07T02:51:48.029Z,101994.44
2022-12-07T02:54:18.794Z,101998.88
2022-12-07T02:56:45.798Z,102006.00
2022-12-07T03:00:00.036Z,101998.16
2022-12-07T03:02:36.881Z,101997.34
2022-12-07T03:05:27.232Z,101999.16
2022-12-07T03:08:35.750Z,102014.06
2022-12-07T03:11:18.957Z,102004.44
2022-12-07T03:14:15.080Z,101996.63
2022-12-07T03:17:09.992Z,101997.53
2022-12-07T03:19:39.140Z,101994.97
2022-12-07T03:22:11.403Z,101990.66
2022-12-07T03:24:59.353Z,101988.88
2022-12-07T03:27:32.591Z,101996.78
2022-12-07T03:30:09.674Z,101986.28
2022-12-07T03:33:13.223Z,101990.66
2022-12-07T03:36:05.894Z,101986.22
2022-12-07T03:38:43.673Z,101988.00
2022-12-07T03:41:20.486Z,101991.44
2022-12-07T03:43:52.505Z,101983.50
2022-12-07T03:46:47.638Z,101985.25
2022-12-07T03:49:25.043Z,101984.31
2022-12-07T03:52:03.108Z,101983.34
2022-12-07T03:54:43.078Z,101983.34
2022-12-07T03:57:12.627Z,101979.81
2022-12-07T03:59:40.802Z,101988.59
2022-12-07T04:02:09.496Z,101988.59
2022-12-07T04:04:36.931Z,101984.22
2022-12-07T04:07:04.116Z,101977.13
2022-12-07T04:09:31.231Z,101975.31
2022-12-07T04:11:58.337Z,101978.84
2022-12-07T04:14:25.522Z,101974.47
2022-12-07T04:16:58.583Z,101969.25
2022-12-07T04:19:32.379Z,101973.69
2022-12-07T04:22:01.690Z,101970.19
2022-12-07T04:24:29.634Z,101956.19
2022-12-07T04:26:57.007Z,101964.09
2022-12-07T04:29:24.798Z,101965.88
2022-12-07T04:31:52.385Z,101963.28
2022-12-07T04:34:20.315Z,101973.78
2022-12-07T04:36:48.689Z,101973.72
2022-12-07T04:39:26.205Z,101971.97
2022-12-07T04:41:54.790Z,101970.19
2022-12-07T04:44:23.177Z,101971.06
2022-12-07T04:46:51.013Z,101970.16
2022-12-07T04:49:19.040Z,101968.38
2022-12-07T04:51:47.838Z,101968.41
2022-12-07T04:54:16.262Z,101968.44
2022-12-07T04:56:44.180Z,101965.88
2022-12-07T04:59:13.327Z,101964.16
2022-12-07T05:01:41.175Z,101958.94
2022-12-07T05:04:08.892Z,101962.47
2022-12-07T05:06:36.535Z,101956.34
2022-12-07T05:09:04.928Z,101963.28
2022-12-07T05:11:41.133Z,101956.22
2022-12-07T05:14:20.161Z,101949.16
2022-12-07T05:16:51.320Z,101950.78
2022-12-07T05:19:20.046Z,101951.63
2022-12-07T05:21:47.539Z,101952.44
2022-12-07T05:24:16.826Z,101944.44
2022-12-07T05:26:44.560Z,101947.94
2022-12-07T05:29:17.408Z,101946.13
2022-12-07T05:31:45.323Z,101948.69
2022-12-07T05:34:13.093Z,101951.22
2022-12-07T05:36:40.208Z,101952.00
2022-12-07T05:39:08.241Z,101944.06
2022-12-07T05:41:54.039Z,101945.75
2022-12-07T05:44:21.142Z,101957.09
2022-12-07T05:46:48.249Z,101943.84
2022-12-07T05:49:15.383Z,101953.47
2022-12-07T05:51:42.643Z,101958.66
2022-12-07T05:54:09.698Z,101951.69
2022-12-07T05:56:36.819Z,101949.88
2022-12-07T05:59:22.397Z,101951.63
2022-12-07T06:01:57.855Z,101957.69
2022-12-07T06:04:28.319Z,101955.94
2022-12-07T06:06:55.859Z,101952.41
2022-12-07T06:09:25.839Z,101958.53
2022-12-07T06:12:12.057Z,101950.69
2022-12-07T06:14:39.411Z,101954.19
2022-12-07T06:17:07.323Z,101954.06
2022-12-07T06:19:34.683Z,101956.69
2022-12-07T06:22:01.777Z,101961.03
2022-12-07T06:24:29.160Z,101961.03
2022-12-07T06:26:56.273Z,101967.19
2022-12-07T06:29:23.546Z,101961.94
2022-12-07T06:31:50.880Z,101957.63
2022-12-07T06:34:21.343Z,101960.31
2022-12-07T06:36:52.743Z,101958.56
2022-12-07T06:39:21.779Z,101959.50
2022-12-07T06:41:49.199Z,101963.00
2022-12-07T06:44:16.239Z,101962.13
2022-12-07T06:46:43.327Z,101964.75
2022-12-07T06:49:10.427Z,101965.66
2022-12-07T06:51:41.843Z,101962.19
2022-12-07T06:54:10.923Z,101962.19
2022-12-07T06:56:38.357Z,101965.66
2022-12-07T06:59:07.356Z,101961.19
2022-12-07T07:01:36.368Z,101964.66
2022-12-07T07:04:03.894Z,101961.94
2022-12-07T07:06:30.973Z,101958.41
2022-12-07T07:08:58.087Z,101957.44
2022-12-07T07:11:25.234Z,101962.69
2022-12-07T07:13:52.346Z,101962.53
2022-12-07T07:16:19.476Z,101963.38
2022-12-07T07:18:46.646Z,101965.97
2022-12-07T07:21:13.769Z,101974.72
2022-12-07T07:23:40.929Z,101967.66
2022-12-07T07:26:08.037Z,101971.19
2022-12-07T07:28:36.686Z,101967.63
2022-12-07T07:31:03.793Z,101964.09
2022-12-07T07:33:30.943Z,101969.38
2022-12-07T07:35:58.006Z,101960.53
2022-12-07T07:38:25.116Z,101961.38
2022-12-07T07:40:52.238Z,101958.69
2022-12-07T07:43:19.329Z,101966.53
2022-12-07T07:45:46.508Z,101968.22
2022-12-07T07:48:13.634Z,101967.34
2022-12-07T07:50:40.791Z,101963.75
2022-12-07T07:53:07.882Z,101960.22
2022-12-07T07:55:34.982Z,101966.31
2022-12-07T07:58:02.123Z,101967.16
2022-12-07T08:00:29.154Z,101970.66
2022-12-07T08:02:56.390Z,101962.81
2022-12-07T08:05:23.491Z,101969.81
2022-12-07T08:07:50.638Z,101977.72
2022-12-07T08:10:17.825Z,101973.44
2022-12-07T08:13:03.646Z,101975.22
2022-12-07T08:15:32.437Z,101983.09
2022-12-07T08:18:00.446Z,101974.31
2022-12-07T08:20:27.723Z,101981.34
2022-12-07T08:22:54.840Z,101988.44
2022-12-07T08:25:23.225Z,101989.44
2022-12-07T08:27:51.841Z,101990.44
2022-12-07T08:30:19.984Z,101986.34
2022-12-07T08:32:48.387Z,101983.03
2022-12-07T08:35:16.487Z,101971.09
2022-12-07T08:37:44.121Z,101972.94
2022-12-07T08:40:16.107Z,101980.09
2022-12-07T08:42:50.926Z,101977.63
2022-12-07T08:45:26.364Z,101983.00
2022-12-07T08:48:03.059Z,101980.53
2022-12-07T08:50:30.539Z,101982.41
2022-12-07T08:53:00.537Z,101986.91
2022-12-07T08:55:29.125Z,101975.66
2022-12-07T08:57:57.682Z,101976.66
2022-12-07T09:00:24.963Z,101977.59
2022-12-07T09:02:52.107Z,101974.22
2022-12-07T09:05:19.341Z,101978.69
2022-12-07T09:07:51.103Z,101976.13
2022-12-07T09:10:19.049Z,101977.00
2022-12-07T09:12:46.094Z,101980.56
2022-12-07T09:15:13.186Z,101977.09
2022-12-07T09:17:40.290Z,101973.63
2022-12-07T09:20:08.265Z,101973.72
2022-12-07T09:22:35.474Z,101971.19
2022-12-07T09:25:04.162Z,101977.47
2022-12-07T09:27:31.620Z,101985.63
2022-12-07T09:29:58.716Z,101977.91
2022-12-07T09:32:25.786Z,101985.91
2022-12-07T09:34:52.999Z,101985.13
2022-12-07T09:37:20.330Z,101972.88
2022-12-07T09:39:50.285Z,101980.88
2022-12-07T09:42:29.799Z,101982.63
2022-12-07T09:44:57.531Z,101973.88
2022-12-07T09:47:24.683Z,101973.94
2022-12-07T09:49:52.106Z,101966.16
2022-12-07T09:52:27.822Z,101967.97
2022-12-07T09:54:54.960Z,101971.59
2022-12-07T09:57:31.485Z,101972.56
2022-12-07T10:00:05.402Z,101960.31
2022-12-07T10:02:44.995Z,101962.97
2022-12-07T10:05:24.404Z,101955.97
2022-12-07T10:07:52.127Z,101955.09
2022-12-07T10:10:35.287Z,101963.91
2022-12-07T10:13:20.084Z,101952.47
2022-12-07T10:15:59.795Z,101951.59
2022-12-07T10:18:43.422Z,101947.41
2022-12-07T10:21:26.303Z,101940.56
2022-12-07T10:24:17.587Z,101936.41
2022-12-07T10:26:47.568Z,101933.84
2022-12-07T10:29:30.106Z,101933.84
2022-12-07T10:32:05.223Z,101928.56
2022-12-07T10:34:42.704Z,101923.25
2022-12-07T10:37:14.014Z,101925.88
2022-12-07T10:39:49.041Z,101924.97
2022-12-07T10:42:32.906Z,101925.91
2022-12-07T10:45:17.569Z,101917.97
2022-12-07T10:47:57.247Z,101910.72
2022-12-07T10:50:42.395Z,101907.84
2022-12-07T10:54:11.414Z,101901.44
2022-12-07T10:57:19.382Z,101896.16
2022-12-07T11:00:10.829Z,101905.31
2022-12-07T11:03:05.131Z,101901.06
2022-12-07T11:06:15.952Z,101902.72
2022-12-07T11:08:59.303Z,101897.38
2022-12-07T11:11:32.170Z,101897.38
2022-12-07T11:14:20.124Z,101897.47
2022-12-07T11:17:18.894Z,101887.84
2022-12-07T11:20:14.205Z,101888.69
2022-12-07T11:22:52.823Z,101891.44
2022-12-07T11:25:58.543Z,101893.22
2022-12-07T11:28:57.490Z,101889.78
2022-12-07T11:31:59.501Z,101885.41
2022-12-07T11:35:04.033Z,101888.91
2022-12-07T11:40:22.854Z,101878.31
2022-12-07T11:43:03.796Z,101876.56
2022-12-07T11:45:35.378Z,101868.63
2022-12-07T11:48:26.156Z,101872.16
2022-12-07T11:50:58.042Z,101860.69
2022-12-07T11:53:35.215Z,101862.50
2022-12-07T11:56:15.942Z,101859.81
2022-12-07T11:59:28.565Z,101865.09
2022-12-07T12:02:01.995Z,101859.84
2022-12-07T12:04:42.233Z,101853.66
2022-12-07T12:10:22.220Z,101849.25
2022-12-07T12:16:49.673Z,101837.81
2022-12-07T12:19:53.448Z,101837.81
2022-12-07T12:22:24.639Z,101835.16
2022-12-07T12:24:54.831Z,101838.69
2022-12-07T12:27:38.691Z,101831.66
2022-12-07T12:30:25.177Z,101836.94
2022-12-07T12:32:53.289Z,101824.63
2022-12-07T12:35:35.192Z,101824.63
2022-12-07T12:38:52.999Z,101822.84
2022-12-07T12:41:42.303Z,101816.69
2022-12-07T12:44:21.386Z,101809.63
2022-12-07T12:46:58.498Z,101806.06
2022-12-07T12:49:28.270Z,101814.00
2022-12-07T12:51:58.903Z,101803.44
2022-12-07T12:54:32.918Z,101802.53
2022-12-07T12:57:14.562Z,101806.94
2022-12-07T12:59:53.629Z,101803.41
2022-12-07T13:02:59.910Z,101811.34
2022-12-07T13:05:30.368Z,101818.44
2022-12-07T13:08:22.608Z,101807.00
2022-12-07T13:10:49.988Z,101792.03
2022-12-07T13:13:19.887Z,101799.97
2022-12-07T13:15:51.326Z,101796.44
2022-12-07T13:18:33.330Z,101793.78
2022-12-07T13:21:07.451Z,101787.59
2022-12-07T13:23:53.083Z,101787.56
2022-12-07T13:26:33.342Z,101782.31
2022-12-07T13:29:18.578Z,101785.81
2022-12-07T13:31:48.004Z,101778.75
2022-12-07T13:34:42.586Z,101773.44
2022-12-07T13:37:38.857Z,101765.53
2022-12-07T13:40:24.023Z,101772.53
2022-12-07T13:43:15.759Z,101768.16
2022-12-07T13:45:49.941Z,101762.88
2022-12-07T13:48:35.967Z,101756.69
2022-12-07T13:51:05.669Z,101761.97
2022-12-07T13:53:32.867Z,101753.19
2022-12-07T13:56:02.151Z,101752.28
2022-12-07T13:58:32.820Z,101747.91
2022-12-07T14:01:00.795Z,101754.09
2022-12-07T14:03:37.602Z,101752.31
2022-12-07T14:06:29.226Z,101747.91
2022-12-07T14:09:23.747Z,101753.19
2022-12-07T14:11:54.194Z,101740.88
2022-12-07T14:14:36.525Z,101748.78
2022-12-07T14:17:25.880Z,101743.53
2022-12-07T14:19:59.145Z,101740.03
2022-12-07T14:22:53.978Z,101738.28
2022-12-07T14:25:27.683Z,101724.19
2022-12-07T14:28:02.457Z,101729.47
2022-12-07T14:30:34.433Z,101724.19
2022-12-07T14:33:05.355Z,101725.97
2022-12-07T14:35:33.904Z,101727.72
2022-12-07T14:38:01.362Z,101717.16
2022-12-07T14:40:31.057Z,101725.94
2022-12-07T14:43:13.230Z,101718.03
2022-12-07T14:45:43.519Z,101712.78
2022-12-07T14:53:57.305Z,101717.16
2022-12-07T14:56:25.975Z,101711.84
2022-12-07T14:58:53.277Z,101711.88
2022-12-07T15:01:20.434Z,101713.59
2022-12-07T15:03:47.665Z,101718.00
2022-12-07T15:06:17.471Z,101707.44
2022-12-07T15:08:47.629Z,101703.94
2022-12-07T15:11:19.276Z,101715.34
2022-12-07T15:14:05.214Z,101723.28
2022-12-07T15:16:52.391Z,101727.69
2022-12-07T15:19:28.511Z,101721.53
2022-12-07T15:21:57.570Z,101727.69
2022-12-07T15:24:25.291Z,101710.97
2022-12-07T15:26:53.150Z,101705.69
2022-12-07T15:29:23.291Z,101706.53
2022-12-07T15:31:57.727Z,101709.19
2022-12-07T15:34:34.866Z,101707.41
2022-12-07T15:37:05.999Z,101703.00
2022-12-07T15:39:33.201Z,101703.03
2022-12-07T15:42:00.314Z,101701.25
2022-12-07T15:44:45.913Z,101692.41
2022-12-07T15:47:13.366Z,101688.03
2022-12-07T15:49:40.471Z,101688.91
2022-12-07T15:52:07.562Z,101687.16
2022-12-07T15:54:34.742Z,101681.88
2022-12-07T15:57:02.096Z,101679.22
2022-12-07T15:59:29.799Z,101681.81
2022-12-07T16:01:57.369Z,101672.19
2022-12-07T16:04:24.459Z,101675.69
2022-12-07T16:06:52.112Z,101674.81
2022-12-07T16:09:20.403Z,101670.38
2022-12-07T16:11:47.697Z,101666.00
2022-12-07T16:14:15.045Z,101670.38
2022-12-07T16:16:42.748Z,101673.88
2022-12-07T16:19:10.237Z,101672.13
2022-12-07T16:21:37.549Z,101656.28
2022-12-07T16:24:06.124Z,101655.44
2022-12-07T16:26:33.371Z,101652.78
2022-12-07T16:29:00.469Z,101646.59
2022-12-07T16:31:28.876Z,101653.63
2022-12-07T16:33:58.731Z,101646.59
2022-12-07T16:37:02.152Z,101647.47
2022-12-07T16:39:15.408Z,101646.56
2022-12-07T16:41:42.617Z,101651.81
2022-12-07T16:44:13.530Z,101645.66
2022-12-07T16:46:41.684Z,101637.78
2022-12-07T16:49:15.993Z,101631.56
2022-12-07T16:51:47.262Z,101633.34
2022-12-07T16:54:14.440Z,101643.88
2022-12-07T16:56:42.381Z,101636.84
2022-12-07T16:59:10.116Z,101631.59
2022-12-07T17:01:37.305Z,101629.81
2022-12-07T17:04:05.392Z,101633.31
2022-12-07T17:06:33.337Z,101628.91
2022-12-07T17:09:00.480Z,101629.78
2022-12-07T17:11:31.648Z,101623.63
2022-12-07T17:14:17.411Z,101628.84
2022-12-07T17:16:44.675Z,101629.72
2022-12-07T17:19:15.006Z,101624.44
2022-12-07T17:21:43.915Z,101622.69
2022-12-07T17:24:14.120Z,101620.06
2022-12-07T17:26:42.808Z,101620.94
2022-12-07T17:29:11.081Z,101620.94
2022-12-07T17:31:38.950Z,101619.19
2022-12-07T17:34:13.891Z,101619.16
2022-12-07T17:36:41.716Z,101615.69
2022-12-07T17:39:14.569Z,101620.97
2022-12-07T17:42:00.411Z,101622.72
2022-12-07T17:44:29.159Z,101629.75
2022-12-07T17:46:59.701Z,101624.47
2022-12-07T17:49:28.243Z,101624.44
2022-12-07T17:52:14.620Z,101632.38
2022-12-07T17:54:41.749Z,101620.97
2022-12-07T17:57:10.591Z,101614.84
2022-12-07T17:59:38.068Z,101609.56
2022-12-07T18:02:05.662Z,101610.47
2022-12-07T18:04:33.882Z,101604.31
2022-12-07T18:07:00.982Z,101584.13
2022-12-07T18:09:28.071Z,101581.44
2022-12-07T18:11:55.173Z,101577.97
2022-12-07T18:14:22.336Z,101573.53
2022-12-07T18:16:52.240Z,101578.81
2022-12-07T18:19:19.408Z,101575.31
2022-12-07T18:21:46.800Z,101572.66
2022-12-07T18:24:16.461Z,101563.00
2022-12-07T18:26:47.729Z,101565.63
2022-12-07T18:29:17.676Z,101565.66
2022-12-07T18:31:49.496Z,101560.41
2022-12-07T18:34:19.370Z,101562.16
2022-12-07T18:36:50.388Z,101557.75
2022-12-07T18:39:19.394Z,101552.50
2022-12-07T18:41:47.384Z,101556.00
2022-12-07T18:44:16.827Z,101563.03
2022-12-07T18:46:44.305Z,101555.97
2022-12-07T18:49:13.895Z,101563.88
2022-12-07T18:51:41.310Z,101563.00
2022-12-07T18:54:09.027Z,101569.13
2022-12-07T18:56:36.106Z,101572.63
2022-12-07T18:59:24.000Z,101570.88
2022-12-07T19:01:54.288Z,101575.25
2022-12-07T19:04:22.435Z,101567.38
2022-12-07T19:06:50.320Z,101568.22
2022-12-07T19:09:18.839Z,101579.66
2022-12-07T19:11:52.722Z,101572.59
2022-12-07T19:14:27.047Z,101577.88
2022-12-07T19:16:58.019Z,101574.38
2022-12-07T19:19:32.169Z,101569.91
2022-12-07T19:21:59.555Z,101562.09
2022-12-07T19:24:27.246Z,101569.13
2022-12-07T19:26:54.451Z,101568.22
2022-12-07T19:29:21.583Z,101561.19
2022-12-07T19:31:49.254Z,101561.19
2022-12-07T19:34:17.620Z,101560.34
2022-12-07T19:36:46.661Z,101558.56
2022-12-07T19:39:15.755Z,101563.78
2022-12-07T19:41:46.121Z,101552.38
2022-12-07T19:44:16.967Z,101548.84
2022-12-07T19:46:46.784Z,101545.38
2022-12-07T19:49:17.647Z,101540.09
2022-12-07T19:51:48.020Z,101534.84
2022-12-07T19:54:18.036Z,101528.69
2022-12-07T19:56:46.169Z,101527.81
2022-12-07T19:59:15.253Z,101519.03
2022-12-07T20:01:43.573Z,101522.53
2022-12-07T20:04:16.564Z,101517.25
2022-12-07T20:06:44.770Z,101515.50
2022-12-07T20:09:12.539Z,101521.66
2022-12-07T20:11:58.422Z,101517.25
2022-12-07T20:14:26.079Z,101514.63
2022-12-07T20:16:53.549Z,101515.50
2022-12-07T20:19:21.386Z,101506.72
2022-12-07T20:21:49.307Z,101509.38
2022-12-07T20:24:23.787Z,101502.34
2022-12-07T20:26:52.761Z,101503.22
2022-12-07T20:29:24.024Z,101500.59
2022-12-07T20:31:53.293Z,101490.94
2022-12-07T20:34:20.879Z,101487.38
2022-12-07T20:36:47.984Z,101486.53
2022-12-07T20:39:15.777Z,101485.63
2022-12-07T20:42:01.442Z,101480.38
2022-12-07T20:44:28.682Z,101478.59
2022-12-07T20:46:55.750Z,101469.81
2022-12-07T20:49:22.855Z,101465.41
2022-12-07T20:51:51.001Z,101468.06
2022-12-07T20:54:18.164Z,101467.16
2022-12-07T20:56:45.338Z,101473.31
2022-12-07T20:59:16.294Z,101471.53
2022-12-07T21:01:44.312Z,101463.63
2022-12-07T21:04:14.234Z,101470.63
2022-12-07T21:06:41.942Z,101461.00
2022-12-07T21:09:11.731Z,101458.34
2022-12-07T21:11:39.475Z,101460.09
2022-12-07T21:14:07.460Z,101460.09
2022-12-07T21:16:34.651Z,101459.22
2022-12-07T21:19:03.687Z,101457.44
2022-12-07T21:21:32.787Z,101460.94
2022-12-07T21:24:02.966Z,101458.28
2022-12-07T21:26:35.956Z,101451.25
2022-12-07T21:29:06.279Z,101445.13
2022-12-07T21:31:34.344Z,101441.59
2022-12-07T21:34:05.554Z,101442.47
2022-12-07T21:36:33.579Z,101438.97
2022-12-07T21:39:01.373Z,101439.84
2022-12-07T21:41:34.950Z,101440.72
2022-12-07T21:44:05.327Z,101434.56
2022-12-07T21:46:34.581Z,101426.69
2022-12-07T21:49:10.088Z,101434.59
2022-12-07T21:51:38.226Z,101430.19
2022-12-07T21:54:06.761Z,101424.94
2022-12-07T21:56:37.985Z,101424.06
2022-12-07T21:59:13.244Z,101420.56
2022-12-07T22:01:42.128Z,101416.19
2022-12-07T22:04:17.672Z,101417.94
2022-12-07T22:06:45.851Z,101415.34
2022-12-07T22:09:13.719Z,101413.56
2022-12-07T22:11:40.905Z,101410.06
2022-12-07T22:14:28.080Z,101408.31
2022-12-07T22:16:55.145Z,101407.44
2022-12-07T22:19:22.260Z,101409.19
2022-12-07T22:21:49.441Z,101418.00
2022-12-07T22:24:16.529Z,101416.25
2022-12-07T22:26:44.630Z,101405.75
2022-12-07T22:29:12.041Z,101411.88
2022-12-07T22:31:40.960Z,101409.25
2022-12-07T22:34:12.834Z,101402.22
2022-12-07T22:36:39.883Z,101400.50
2022-12-07T22:39:07.016Z,101400.47
2022-12-07T22:41:34.138Z,101402.22
2022-12-07T22:44:01.862Z,101395.22
2022-12-07T22:46:29.045Z,101390.81
2022-12-07T22:48:56.178Z,101386.44
2022-12-07T22:51:35.839Z,101385.56
2022-12-07T22:54:07.260Z,101379.41
2022-12-07T22:56:37.635Z,101371.50
2022-12-07T22:59:07.084Z,101364.50
2022-12-07T23:01:34.915Z,101369.75
2022-12-07T23:04:02.113Z,101360.09
2022-12-07T23:06:32.757Z,101361.00
2022-12-07T23:09:05.009Z,101357.50
2022-12-07T23:11:54.100Z,101356.59
2022-12-07T23:14:30.495Z,101350.47
2022-12-07T23:16:58.055Z,101354.81
2022-12-07T23:19:26.387Z,101345.19
2022-12-07T23:21:53.444Z,101336.41
2022-12-07T23:24:20.547Z,101334.69
2022-12-07T23:26:48.445Z,101334.69
2022-12-07T23:29:18.175Z,101332.91
2022-12-07T23:31:49.550Z,101339.91
2022-12-07T23:34:16.830Z,101335.53
2022-12-07T23:36:44.407Z,101331.19
2022-12-07T23:39:11.963Z,101332.94
2022-12-07T23:41:39.657Z,101330.31
2022-12-07T23:44:07.277Z,101325.03
2022-12-07T23:46:35.158Z,101317.16
2022-12-07T23:49:05.258Z,101324.16
2022-12-07T23:51:33.139Z,101317.19
2022-12-07T23:54:01.687Z,101315.41
2022-12-07T23:56:31.187Z,101309.28
2022-12-07T23:58:59.138Z,101308.44
